sensor_id;sensor_type;location;lat;lon;timestamp;P1;durP1;ratioP1;P2;durP2;ratioP2
63350;SDS011;64988;51.058;17.040;2023-06-26T00:04:42;17.77;;;9.55;;
63350;SDS011;64988;51.058;17.040;2023-06-26T00:10:09;16.25;;;9.48;;
63350;SDS011;64988;51.058;17.040;2023-06-26T00:15:36;19.73;;;9.40;;
63350;SDS011;64988;51.058;17.040;2023-06-26T00:21:04;22.48;;;9.75;;
63350;SDS011;64988;51.058;17.040;2023-06-26T00:26:30;16.15;;;9.93;;
63350;SDS011;64988;51.058;17.040;2023-06-26T00:31:58;21.40;;;11.02;;
63350;SDS011;64988;51.058;17.040;2023-06-26T00:37:26;31.90;;;14.15;;
63350;SDS011;64988;51.058;17.040;2023-06-26T00:42:53;24.98;;;13.23;;
63350;SDS011;64988;51.058;17.040;2023-06-26T00:48:21;29.95;;;12.82;;
63350;SDS011;64988;51.058;17.040;2023-06-26T00:53:50;32.47;;;13.02;;
63350;SDS011;64988;51.058;17.040;2023-06-26T00:59:18;24.70;;;11.60;;
63350;SDS011;64988;51.058;17.040;2023-06-26T01:04:47;24.45;;;9.45;;
63350;SDS011;64988;51.058;17.040;2023-06-26T01:10:15;22.67;;;10.18;;
63350;SDS011;64988;51.058;17.040;2023-06-26T01:15:42;19.42;;;9.75;;
63350;SDS011;64988;51.058;17.040;2023-06-26T01:21:10;15.25;;;9.90;;
63350;SDS011;64988;51.058;17.040;2023-06-26T01:26:40;20.02;;;9.65;;
63350;SDS011;64988;51.058;17.040;2023-06-26T01:32:08;16.85;;;9.18;;
63350;SDS011;64988;51.058;17.040;2023-06-26T01:37:35;18.45;;;8.20;;
63350;SDS011;64988;51.058;17.040;2023-06-26T01:43:03;17.50;;;8.32;;
63350;SDS011;64988;51.058;17.040;2023-06-26T01:48:34;14.85;;;8.40;;
63350;SDS011;64988;51.058;17.040;2023-06-26T01:54:06;18.10;;;7.25;;
63350;SDS011;64988;51.058;17.040;2023-06-26T01:59:36;20.50;;;8.60;;
63350;SDS011;64988;51.058;17.040;2023-06-26T02:05:04;18.90;;;8.40;;
63350;SDS011;64988;51.058;17.040;2023-06-26T02:10:31;16.10;;;9.40;;
63350;SDS011;64988;51.058;17.040;2023-06-26T02:15:58;17.13;;;9.90;;
63350;SDS011;64988;51.058;17.040;2023-06-26T02:21:25;15.82;;;9.25;;
63350;SDS011;64988;51.058;17.040;2023-06-26T02:26:55;15.18;;;8.13;;
63350;SDS011;64988;51.058;17.040;2023-06-26T02:32:23;17.92;;;8.50;;
63350;SDS011;64988;51.058;17.040;2023-06-26T02:37:50;15.65;;;7.20;;
63350;SDS011;64988;51.058;17.040;2023-06-26T02:43:17;11.65;;;7.43;;
63350;SDS011;64988;51.058;17.040;2023-06-26T02:48:44;17.60;;;8.82;;
63350;SDS011;64988;51.058;17.040;2023-06-26T02:54:11;12.70;;;8.73;;
63350;SDS011;64988;51.058;17.040;2023-06-26T02:59:40;16.38;;;8.75;;
63350;SDS011;64988;51.058;17.040;2023-06-26T03:05:08;18.75;;;9.57;;
63350;SDS011;64988;51.058;17.040;2023-06-26T03:10:36;18.50;;;8.77;;
63350;SDS011;64988;51.058;17.040;2023-06-26T03:16:04;20.05;;;9.50;;
63350;SDS011;64988;51.058;17.040;2023-06-26T03:21:32;17.80;;;8.23;;
63350;SDS011;64988;51.058;17.040;2023-06-26T03:27:00;22.85;;;7.95;;
63350;SDS011;64988;51.058;17.040;2023-06-26T03:32:28;15.80;;;7.53;;
63350;SDS011;64988;51.058;17.040;2023-06-26T03:37:55;11.90;;;6.35;;
63350;SDS011;64988;51.058;17.040;2023-06-26T03:43:26;15.00;;;6.93;;
63350;SDS011;64988;51.058;17.040;2023-06-26T03:49:13;11.30;;;7.00;;
63350;SDS011;64988;51.058;17.040;2023-06-26T03:54:40;12.98;;;7.47;;
63350;SDS011;64988;51.058;17.040;2023-06-26T04:06:11;10.38;;;6.75;;
63350;SDS011;64988;51.058;17.040;2023-06-26T04:11:38;14.95;;;7.55;;
63350;SDS011;64988;51.058;17.040;2023-06-26T04:17:05;11.65;;;7.35;;
63350;SDS011;64988;51.058;17.040;2023-06-26T04:22:33;11.20;;;6.97;;
63350;SDS011;64988;51.058;17.040;2023-06-26T04:28:00;10.20;;;7.03;;
63350;SDS011;64988;51.058;17.040;2023-06-26T04:33:27;10.80;;;6.50;;
63350;SDS011;64988;51.058;17.040;2023-06-26T04:38:55;15.73;;;6.93;;
63350;SDS011;64988;51.058;17.040;2023-06-26T04:44:22;10.77;;;6.50;;
63350;SDS011;64988;51.058;17.040;2023-06-26T04:49:49;9.02;;;6.22;;
63350;SDS011;64988;51.058;17.040;2023-06-26T04:55:18;12.15;;;6.15;;
63350;SDS011;64988;51.058;17.040;2023-06-26T05:00:45;9.70;;;6.10;;
63350;SDS011;64988;51.058;17.040;2023-06-26T05:06:12;11.00;;;5.45;;
63350;SDS011;64988;51.058;17.040;2023-06-26T05:11:40;10.93;;;5.75;;
63350;SDS011;64988;51.058;17.040;2023-06-26T05:17:07;7.05;;;5.35;;
63350;SDS011;64988;51.058;17.040;2023-06-26T05:22:34;10.25;;;5.35;;
63350;SDS011;64988;51.058;17.040;2023-06-26T05:28:02;8.32;;;4.90;;
63350;SDS011;64988;51.058;17.040;2023-06-26T05:33:32;9.20;;;4.40;;
63350;SDS011;64988;51.058;17.040;2023-06-26T05:39:02;7.93;;;4.28;;
63350;SDS011;64988;51.058;17.040;2023-06-26T05:44:30;9.43;;;3.63;;
63350;SDS011;64988;51.058;17.040;2023-06-26T05:49:56;5.85;;;3.50;;
63350;SDS011;64988;51.058;17.040;2023-06-26T05:55:25;6.32;;;4.20;;
63350;SDS011;64988;51.058;17.040;2023-06-26T06:00:52;4.35;;;3.75;;
63350;SDS011;64988;51.058;17.040;2023-06-26T06:06:20;7.90;;;4.30;;
63350;SDS011;64988;51.058;17.040;2023-06-26T06:11:47;6.38;;;4.00;;
63350;SDS011;64988;51.058;17.040;2023-06-26T06:17:14;9.15;;;3.35;;
63350;SDS011;64988;51.058;17.040;2023-06-26T06:22:41;4.65;;;3.95;;
63350;SDS011;64988;51.058;17.040;2023-06-26T06:28:08;8.95;;;4.18;;
63350;SDS011;64988;51.058;17.040;2023-06-26T06:33:35;4.88;;;3.17;;
63350;SDS011;64988;51.058;17.040;2023-06-26T06:39:02;5.47;;;4.00;;
63350;SDS011;64988;51.058;17.040;2023-06-26T06:44:30;10.55;;;3.90;;
63350;SDS011;64988;51.058;17.040;2023-06-26T06:50:00;7.22;;;3.53;;
63350;SDS011;64988;51.058;17.040;2023-06-26T06:55:34;4.45;;;3.67;;
63350;SDS011;64988;51.058;17.040;2023-06-26T07:01:02;8.00;;;3.33;;
63350;SDS011;64988;51.058;17.040;2023-06-26T07:06:30;6.50;;;3.55;;
63350;SDS011;64988;51.058;17.040;2023-06-26T07:11:58;6.82;;;3.38;;
63350;SDS011;64988;51.058;17.040;2023-06-26T07:17:24;4.93;;;3.50;;
63350;SDS011;64988;51.058;17.040;2023-06-26T07:22:52;5.35;;;3.28;;
63350;SDS011;64988;51.058;17.040;2023-06-26T07:28:20;7.45;;;3.70;;
63350;SDS011;64988;51.058;17.040;2023-06-26T07:33:47;3.63;;;3.30;;
63350;SDS011;64988;51.058;17.040;2023-06-26T07:39:14;4.07;;;3.60;;
63350;SDS011;64988;51.058;17.040;2023-06-26T07:44:50;3.65;;;3.35;;
63350;SDS011;64988;51.058;17.040;2023-06-26T07:50:17;6.15;;;3.30;;
63350;SDS011;64988;51.058;17.040;2023-06-26T07:55:50;8.63;;;3.08;;
63350;SDS011;64988;51.058;17.040;2023-06-26T08:01:18;10.30;;;3.35;;
63350;SDS011;64988;51.058;17.040;2023-06-26T08:06:47;3.00;;;2.72;;
63350;SDS011;64988;51.058;17.040;2023-06-26T08:12:14;3.15;;;2.88;;
63350;SDS011;64988;51.058;17.040;2023-06-26T08:17:41;2.75;;;2.38;;
63350;SDS011;64988;51.058;17.040;2023-06-26T08:23:09;2.90;;;2.70;;
63350;SDS011;64988;51.058;17.040;2023-06-26T08:28:36;2.88;;;2.55;;
63350;SDS011;64988;51.058;17.040;2023-06-26T08:34:03;2.67;;;2.47;;
63350;SDS011;64988;51.058;17.040;2023-06-26T08:39:31;5.07;;;2.45;;
63350;SDS011;64988;51.058;17.040;2023-06-26T08:44:58;2.83;;;2.63;;
63350;SDS011;64988;51.058;17.040;2023-06-26T08:50:30;3.30;;;3.00;;
63350;SDS011;64988;51.058;17.040;2023-06-26T08:55:58;4.35;;;2.95;;
63350;SDS011;64988;51.058;17.040;2023-06-26T09:01:26;3.63;;;2.90;;
63350;SDS011;64988;51.058;17.040;2023-06-26T09:06:54;3.50;;;3.20;;
63350;SDS011;64988;51.058;17.040;2023-06-26T09:12:21;3.67;;;3.37;;
63350;SDS011;64988;51.058;17.040;2023-06-26T09:17:50;3.40;;;3.10;;
63350;SDS011;64988;51.058;17.040;2023-06-26T09:23:22;3.53;;;3.25;;
63350;SDS011;64988;51.058;17.040;2023-06-26T09:28:50;2.88;;;2.60;;
63350;SDS011;64988;51.058;17.040;2023-06-26T09:34:18;3.65;;;3.30;;
63350;SDS011;64988;51.058;17.040;2023-06-26T09:39:47;5.95;;;3.08;;
63350;SDS011;64988;51.058;17.040;2023-06-26T09:45:18;4.45;;;3.15;;
63350;SDS011;64988;51.058;17.040;2023-06-26T09:50:46;3.83;;;3.30;;
63350;SDS011;64988;51.058;17.040;2023-06-26T09:56:34;5.85;;;3.58;;
63350;SDS011;64988;51.058;17.040;2023-06-26T10:02:01;4.60;;;3.50;;
63350;SDS011;64988;51.058;17.040;2023-06-26T10:07:29;5.25;;;3.63;;
63350;SDS011;64988;51.058;17.040;2023-06-26T10:12:59;3.60;;;3.05;;
63350;SDS011;64988;51.058;17.040;2023-06-26T10:18:27;3.63;;;3.15;;
63350;SDS011;64988;51.058;17.040;2023-06-26T10:23:56;4.25;;;3.38;;
63350;SDS011;64988;51.058;17.040;2023-06-26T10:29:23;3.70;;;2.95;;
63350;SDS011;64988;51.058;17.040;2023-06-26T10:34:52;3.90;;;3.47;;
63350;SDS011;64988;51.058;17.040;2023-06-26T10:40:27;7.18;;;3.25;;
63350;SDS011;64988;51.058;17.040;2023-06-26T10:45:55;4.32;;;3.15;;
63350;SDS011;64988;51.058;17.040;2023-06-26T10:51:22;3.65;;;3.35;;
63350;SDS011;64988;51.058;17.040;2023-06-26T10:56:51;3.67;;;3.08;;
63350;SDS011;64988;51.058;17.040;2023-06-26T11:02:25;4.32;;;3.92;;
63350;SDS011;64988;51.058;17.040;2023-06-26T11:08:05;4.63;;;3.67;;
63350;SDS011;64988;51.058;17.040;2023-06-26T11:13:33;4.00;;;3.53;;
63350;SDS011;64988;51.058;17.040;2023-06-26T11:19:02;4.53;;;3.50;;
63350;SDS011;64988;51.058;17.040;2023-06-26T11:24:29;6.35;;;3.83;;
63350;SDS011;64988;51.058;17.040;2023-06-26T11:29:57;5.28;;;3.15;;
63350;SDS011;64988;51.058;17.040;2023-06-26T11:35:25;5.10;;;3.60;;
63350;SDS011;64988;51.058;17.040;2023-06-26T11:40:57;5.00;;;3.80;;
63350;SDS011;64988;51.058;17.040;2023-06-26T11:46:26;4.18;;;3.55;;
63350;SDS011;64988;51.058;17.040;2023-06-26T11:51:54;6.18;;;3.33;;
63350;SDS011;64988;51.058;17.040;2023-06-26T11:57:24;3.70;;;3.17;;
63350;SDS011;64988;51.058;17.040;2023-06-26T12:02:50;4.20;;;3.40;;
63350;SDS011;64988;51.058;17.040;2023-06-26T12:08:19;4.57;;;3.33;;
63350;SDS011;64988;51.058;17.040;2023-06-26T12:13:46;3.53;;;3.22;;
63350;SDS011;64988;51.058;17.040;2023-06-26T12:19:14;5.55;;;3.67;;
63350;SDS011;64988;51.058;17.040;2023-06-26T12:24:41;4.43;;;3.60;;
63350;SDS011;64988;51.058;17.040;2023-06-26T12:30:10;5.30;;;3.50;;
63350;SDS011;64988;51.058;17.040;2023-06-26T12:35:38;6.00;;;3.53;;
63350;SDS011;64988;51.058;17.040;2023-06-26T12:41:12;4.80;;;3.45;;
63350;SDS011;64988;51.058;17.040;2023-06-26T12:46:41;3.80;;;3.38;;
63350;SDS011;64988;51.058;17.040;2023-06-26T12:52:09;5.85;;;3.40;;
63350;SDS011;64988;51.058;17.040;2023-06-26T12:57:37;3.83;;;3.40;;
63350;SDS011;64988;51.058;17.040;2023-06-26T13:03:04;4.80;;;3.97;;
63350;SDS011;64988;51.058;17.040;2023-06-26T13:08:33;4.18;;;3.28;;
63350;SDS011;64988;51.058;17.040;2023-06-26T13:14:00;4.85;;;3.28;;
63350;SDS011;64988;51.058;17.040;2023-06-26T13:19:37;4.50;;;3.33;;
63350;SDS011;64988;51.058;17.040;2023-06-26T13:25:04;3.85;;;3.30;;
63350;SDS011;64988;51.058;17.040;2023-06-26T13:30:32;5.75;;;3.47;;
63350;SDS011;64988;51.058;17.040;2023-06-26T13:35:59;4.13;;;3.42;;
63350;SDS011;64988;51.058;17.040;2023-06-26T13:41:30;4.47;;;3.08;;
63350;SDS011;64988;51.058;17.040;2023-06-26T13:46:57;4.20;;;3.22;;
63350;SDS011;64988;51.058;17.040;2023-06-26T13:52:24;5.75;;;4.00;;
63350;SDS011;64988;51.058;17.040;2023-06-26T13:57:51;5.00;;;3.53;;
63350;SDS011;64988;51.058;17.040;2023-06-26T14:03:18;4.40;;;3.63;;
63350;SDS011;64988;51.058;17.040;2023-06-26T14:08:46;4.53;;;3.53;;
63350;SDS011;64988;51.058;17.040;2023-06-26T14:14:14;5.18;;;3.70;;
63350;SDS011;64988;51.058;17.040;2023-06-26T14:19:42;5.50;;;3.60;;
63350;SDS011;64988;51.058;17.040;2023-06-26T14:25:10;3.72;;;3.28;;
63350;SDS011;64988;51.058;17.040;2023-06-26T14:30:37;3.90;;;2.97;;
63350;SDS011;64988;51.058;17.040;2023-06-26T14:36:05;13.90;;;3.30;;
63350;SDS011;64988;51.058;17.040;2023-06-26T14:41:32;3.83;;;3.38;;
63350;SDS011;64988;51.058;17.040;2023-06-26T14:47:00;4.75;;;3.53;;
63350;SDS011;64988;51.058;17.040;2023-06-26T14:52:28;6.50;;;3.67;;
63350;SDS011;64988;51.058;17.040;2023-06-26T14:57:55;5.63;;;3.70;;
63350;SDS011;64988;51.058;17.040;2023-06-26T15:03:22;4.15;;;3.63;;
63350;SDS011;64988;51.058;17.040;2023-06-26T15:08:49;5.50;;;3.85;;
63350;SDS011;64988;51.058;17.040;2023-06-26T15:14:16;9.10;;;3.75;;
63350;SDS011;64988;51.058;17.040;2023-06-26T15:19:43;3.47;;;3.17;;
63350;SDS011;64988;51.058;17.040;2023-06-26T15:25:10;9.75;;;3.80;;
63350;SDS011;64988;51.058;17.040;2023-06-26T15:30:38;6.60;;;3.70;;
63350;SDS011;64988;51.058;17.040;2023-06-26T15:36:06;4.40;;;3.70;;
63350;SDS011;64988;51.058;17.040;2023-06-26T15:41:34;5.22;;;3.75;;
63350;SDS011;64988;51.058;17.040;2023-06-26T15:47:03;3.97;;;3.38;;
63350;SDS011;64988;51.058;17.040;2023-06-26T15:52:31;5.05;;;3.83;;
63350;SDS011;64988;51.058;17.040;2023-06-26T15:57:59;7.45;;;3.70;;
63350;SDS011;64988;51.058;17.040;2023-06-26T16:03:27;6.30;;;4.20;;
63350;SDS011;64988;51.058;17.040;2023-06-26T16:08:54;5.15;;;4.10;;
63350;SDS011;64988;51.058;17.040;2023-06-26T16:14:24;5.10;;;3.63;;
63350;SDS011;64988;51.058;17.040;2023-06-26T16:19:51;6.28;;;3.90;;
63350;SDS011;64988;51.058;17.040;2023-06-26T16:25:19;5.35;;;4.05;;
63350;SDS011;64988;51.058;17.040;2023-06-26T16:30:48;4.63;;;4.07;;
63350;SDS011;64988;51.058;17.040;2023-06-26T16:36:16;6.25;;;4.22;;
63350;SDS011;64988;51.058;17.040;2023-06-26T16:41:44;7.30;;;4.63;;
63350;SDS011;64988;51.058;17.040;2023-06-26T16:47:12;5.38;;;3.50;;
63350;SDS011;64988;51.058;17.040;2023-06-26T16:52:44;5.65;;;3.65;;
63350;SDS011;64988;51.058;17.040;2023-06-26T16:58:11;4.88;;;3.55;;
63350;SDS011;64988;51.058;17.040;2023-06-26T17:03:38;3.97;;;3.50;;
63350;SDS011;64988;51.058;17.040;2023-06-26T17:09:05;4.22;;;3.45;;
63350;SDS011;64988;51.058;17.040;2023-06-26T17:14:33;4.78;;;4.35;;
63350;SDS011;64988;51.058;17.040;2023-06-26T17:20:01;8.90;;;4.75;;
63350;SDS011;64988;51.058;17.040;2023-06-26T17:25:30;5.85;;;4.13;;
63350;SDS011;64988;51.058;17.040;2023-06-26T17:30:58;5.07;;;3.58;;
63350;SDS011;64988;51.058;17.040;2023-06-26T17:36:25;3.90;;;3.47;;
63350;SDS011;64988;51.058;17.040;2023-06-26T17:41:52;5.13;;;4.07;;
63350;SDS011;64988;51.058;17.040;2023-06-26T17:47:20;7.72;;;3.88;;
63350;SDS011;64988;51.058;17.040;2023-06-26T17:52:48;6.10;;;4.22;;
63350;SDS011;64988;51.058;17.040;2023-06-26T17:58:16;8.23;;;4.38;;
63350;SDS011;64988;51.058;17.040;2023-06-26T18:03:43;7.28;;;4.15;;
63350;SDS011;64988;51.058;17.040;2023-06-26T18:09:11;15.63;;;4.18;;
63350;SDS011;64988;51.058;17.040;2023-06-26T18:14:38;5.63;;;4.22;;
63350;SDS011;64988;51.058;17.040;2023-06-26T18:20:06;6.03;;;3.65;;
63350;SDS011;64988;51.058;17.040;2023-06-26T18:25:34;5.43;;;4.80;;
63350;SDS011;64988;51.058;17.040;2023-06-26T18:31:01;11.98;;;5.05;;
63350;SDS011;64988;51.058;17.040;2023-06-26T18:36:29;8.65;;;4.80;;
63350;SDS011;64988;51.058;17.040;2023-06-26T18:41:58;5.80;;;4.35;;
63350;SDS011;64988;51.058;17.040;2023-06-26T18:47:25;10.48;;;4.93;;
63350;SDS011;64988;51.058;17.040;2023-06-26T18:52:53;6.45;;;4.50;;
63350;SDS011;64988;51.058;17.040;2023-06-26T18:58:21;10.32;;;4.43;;
63350;SDS011;64988;51.058;17.040;2023-06-26T19:03:51;7.30;;;4.38;;
63350;SDS011;64988;51.058;17.040;2023-06-26T19:09:19;12.10;;;5.35;;
63350;SDS011;64988;51.058;17.040;2023-06-26T19:14:47;8.20;;;4.85;;
63350;SDS011;64988;51.058;17.040;2023-06-26T19:20:14;7.10;;;5.38;;
63350;SDS011;64988;51.058;17.040;2023-06-26T19:25:42;9.30;;;4.95;;
63350;SDS011;64988;51.058;17.040;2023-06-26T19:31:09;6.10;;;4.70;;
63350;SDS011;64988;51.058;17.040;2023-06-26T19:36:37;6.97;;;4.15;;
63350;SDS011;64988;51.058;17.040;2023-06-26T19:42:04;7.22;;;4.78;;
63350;SDS011;64988;51.058;17.040;2023-06-26T19:47:32;6.65;;;4.95;;
63350;SDS011;64988;51.058;17.040;2023-06-26T19:53:00;8.20;;;4.72;;
